Time;durP1;ratioP1;P1;durP2;ratioP2;P2;SDS_P1;SDS_P2;PMS_P1;PMS_P2;Temp;Humidity;BMP_temperature;BMP_pressure;BME280_temperature;BME280_humidity;BME280_pressure;Samples;Min_cycle;Max_cycle;Signal;HPM_P1;HPM_P2
2023/06/27 00:01:39;;;;;;;11.40;6.40;;;;;;;;;;5034272;28;20033;-76
2023/06/27 00:04:08;;;;;;;6.13;5.25;;;;;;;;;;5052300;28;20024;-76
2023/06/27 00:06:37;;;;;;;6.22;5.15;;;;;;;;;;5046060;28;20052;-77
2023/06/27 00:09:05;;;;;;;8.23;5.20;;;;;;;;;;5010408;28;20441;-76
2023/06/27 00:11:31;;;;;;;7.10;5.25;;;;;;;;;;5013602;28;20079;-76
2023/06/27 00:13:58;;;;;;;9.55;5.75;;;;;;;;;;5014072;28;20473;-76
2023/06/27 00:16:32;;;;;;;8.00;5.57;;;;;;;;;;5031449;28;20496;-77
2023/06/27 00:19:00;;;;;;;8.30;5.20;;;;;;;;;;5030536;28;20481;-77
2023/06/27 00:21:28;;;;;;;9.95;6.35;;;;;;;;;;5015582;28;20029;-76
2023/06/27 00:23:56;;;;;;;7.70;6.07;;;;;;;;;;5021954;28;20044;-77
2023/06/27 00:26:21;;;;;;;7.07;5.47;;;;;;;;;;5015388;28;20376;-77
2023/06/27 00:28:46;;;;;;;7.13;5.10;;;;;;;;;;5034258;28;20032;-77
2023/06/27 00:31:12;;;;;;;8.85;5.55;;;;;;;;;;5051117;28;20032;-76
2023/06/27 00:33:37;;;;;;;8.82;4.97;;;;;;;;;;5030078;28;20035;-77
2023/06/27 00:36:05;;;;;;;7.53;5.22;;;;;;;;;;5031638;28;20029;-76
2023/06/27 00:38:31;;;;;;;6.47;4.90;;;;;;;;;;5031615;28;20022;-75
2023/06/27 00:40:57;;;;;;;6.65;4.38;;;;;;;;;;5032265;28;20420;-76
2023/06/27 00:43:23;;;;;;;9.00;4.90;;;;;;;;;;5031366;28;20060;-77
2023/06/27 00:45:52;;;;;;;10.88;5.68;;;;;;;;;;5031880;28;20385;-76
2023/06/27 00:48:18;;;;;;;7.85;5.53;;;;;;;;;;5032381;28;20487;-77
2023/06/27 00:50:45;;;;;;;7.03;6.15;;;;;;;;;;5031633;28;20030;-77
2023/06/27 00:53:11;;;;;;;14.68;6.15;;;;;;;;;;5025423;28;20400;-76
2023/06/27 00:55:39;;;;;;;10.65;5.95;;;;;;;;;;5030844;28;20055;-77
2023/06/27 00:58:06;;;;;;;7.13;4.80;;;;;;;;;;5012730;28;20053;-77
2023/06/27 01:00:31;;;;;;;10.57;5.80;;;;;;;;;;5031466;28;20052;-75
2023/06/27 01:02:57;;;;;;;9.10;5.88;;;;;;;;;;5013316;28;20064;-78
2023/06/27 01:05:24;;;;;;;8.82;5.30;;;;;;;;;;5031334;28;20363;-78
2023/06/27 01:08:07;;;;;;;11.75;6.28;;;;;;;;;;5010107;28;20108;-77
2023/06/27 01:10:41;;;;;;;7.70;4.80;;;;;;;;;;5010292;28;20450;-76
2023/06/27 01:13:16;;;;;;;11.43;4.90;;;;;;;;;;5024779;28;20539;-75
2023/06/27 01:15:42;;;;;;;7.97;4.55;;;;;;;;;;5029562;28;20396;-76
2023/06/27 01:18:11;;;;;;;8.48;5.18;;;;;;;;;;5013023;28;20033;-75
2023/06/27 01:20:37;;;;;;;8.60;5.03;;;;;;;;;;5013091;28;20373;-75
2023/06/27 01:23:14;;;;;;;8.57;5.32;;;;;;;;;;5030581;28;20037;-76
2023/06/27 01:25:40;;;;;;;8.88;4.93;;;;;;;;;;5010868;28;20018;-76
2023/06/27 01:28:07;;;;;;;7.53;4.95;;;;;;;;;;5035611;28;20052;-76
2023/06/27 01:30:36;;;;;;;7.78;5.00;;;;;;;;;;5050044;28;20025;-76
2023/06/27 01:33:18;;;;;;;8.10;5.40;;;;;;;;;;5038773;28;20028;-75
2023/06/27 01:36:10;;;;;;;7.50;5.20;;;;;;;;;;5012660;28;20035;-76
2023/06/27 01:38:44;;;;;;;8.45;5.88;;;;;;;;;;5028710;28;20079;-76
2023/06/27 01:41:12;;;;;;;9.45;5.22;;;;;;;;;;5012425;28;20030;-78
2023/06/27 01:43:40;;;;;;;14.38;5.72;;;;;;;;;;5045577;28;20021;-75
2023/06/27 01:46:07;;;;;;;12.23;5.60;;;;;;;;;;5050119;28;20032;-78
2023/06/27 01:48:34;;;;;;;6.78;5.50;;;;;;;;;;5048594;28;20040;-75
2023/06/27 01:51:00;;;;;;;10.10;5.75;;;;;;;;;;5050331;28;20025;-76
2023/06/27 01:53:27;;;;;;;9.57;5.25;;;;;;;;;;5031887;28;20056;-77
2023/06/27 01:55:52;;;;;;;8.13;5.70;;;;;;;;;;5013059;28;20124;-76
2023/06/27 01:58:18;;;;;;;9.02;4.78;;;;;;;;;;5030005;28;20064;-76
2023/06/27 02:00:43;;;;;;;10.07;5.78;;;;;;;;;;5030462;28;20044;-77
2023/06/27 02:03:09;;;;;;;8.65;5.70;;;;;;;;;;5012517;28;20038;-76
2023/06/27 02:05:34;;;;;;;8.60;5.70;;;;;;;;;;5029251;28;20112;-76
2023/06/27 02:08:00;;;;;;;9.73;6.03;;;;;;;;;;5013155;28;20048;-75
2023/06/27 02:10:25;;;;;;;7.90;5.38;;;;;;;;;;5029800;28;20029;-75
2023/06/27 02:12:51;;;;;;;10.38;6.07;;;;;;;;;;5038752;28;20465;-77
2023/06/27 02:15:17;;;;;;;10.02;6.47;;;;;;;;;;5031816;28;20116;-77
2023/06/27 02:17:42;;;;;;;10.02;6.18;;;;;;;;;;5049586;28;20021;-77
2023/06/27 02:20:08;;;;;;;8.18;6.05;;;;;;;;;;5050394;28;20025;-76
2023/06/27 02:22:33;;;;;;;12.57;6.32;;;;;;;;;;5026939;28;20029;-77
2023/06/27 02:24:59;;;;;;;10.20;6.47;;;;;;;;;;5022965;28;20025;-76
2023/06/27 02:27:24;;;;;;;10.18;6.50;;;;;;;;;;5033985;28;20431;-78
2023/06/27 02:29:50;;;;;;;8.98;6.25;;;;;;;;;;5050324;28;20460;-75
2023/06/27 02:32:15;;;;;;;15.48;7.00;;;;;;;;;;5048271;28;20017;-79
2023/06/27 02:34:41;;;;;;;10.05;5.00;;;;;;;;;;5049695;28;20356;-78
2023/06/27 02:37:06;;;;;;;11.57;5.00;;;;;;;;;;5031550;28;20056;-77
2023/06/27 02:39:32;;;;;;;10.65;4.53;;;;;;;;;;5011920;28;20021;-76
2023/06/27 02:41:57;;;;;;;7.32;4.03;;;;;;;;;;5029604;28;20385;-77
2023/06/27 02:44:23;;;;;;;6.50;3.85;;;;;;;;;;5029552;28;20091;-78
2023/06/27 02:46:48;;;;;;;9.52;3.65;;;;;;;;;;5029756;28;20064;-76
2023/06/27 02:49:14;;;;;;;7.28;3.60;;;;;;;;;;5029201;28;20029;-76
2023/06/27 02:51:39;;;;;;;7.78;3.70;;;;;;;;;;5049342;28;20013;-76
2023/06/27 02:54:05;;;;;;;9.18;3.67;;;;;;;;;;5037711;28;20017;-77
2023/06/27 02:56:30;;;;;;;8.85;3.40;;;;;;;;;;5035106;28;20029;-76
2023/06/27 02:58:56;;;;;;;7.78;2.65;;;;;;;;;;5053110;28;20060;-77
2023/06/27 03:01:21;;;;;;;7.50;3.05;;;;;;;;;;5053289;28;20069;-76
2023/06/27 03:03:47;;;;;;;7.25;2.65;;;;;;;;;;5034904;28;20037;-77
2023/06/27 03:06:12;;;;;;;3.67;2.45;;;;;;;;;;5053126;28;20075;-77
2023/06/27 03:08:38;;;;;;;6.90;2.35;;;;;;;;;;5024337;28;20053;-75
2023/06/27 03:11:04;;;;;;;5.80;3.03;;;;;;;;;;5015129;28;20034;-77
2023/06/27 03:13:29;;;;;;;12.05;3.40;;;;;;;;;;5014920;28;20037;-77
2023/06/27 03:15:55;;;;;;;7.38;2.38;;;;;;;;;;5032977;28;20017;-77
2023/06/27 03:18:21;;;;;;;7.18;3.20;;;;;;;;;;5014473;28;20022;-77
2023/06/27 03:20:46;;;;;;;12.10;3.28;;;;;;;;;;5015228;28;20071;-77
2023/06/27 03:23:12;;;;;;;8.23;4.40;;;;;;;;;;5021626;28;20029;-76
2023/06/27 03:25:37;;;;;;;5.78;2.22;;;;;;;;;;5043549;28;20072;-77
2023/06/27 03:28:03;;;;;;;8.45;2.42;;;;;;;;;;5033262;28;20033;-77
2023/06/27 03:30:28;;;;;;;7.93;2.60;;;;;;;;;;5014848;28;20120;-78
2023/06/27 03:32:54;;;;;;;4.78;2.40;;;;;;;;;;5031492;28;20013;-76
2023/06/27 03:35:20;;;;;;;6.03;2.13;;;;;;;;;;5032865;28;20032;-77
2023/06/27 03:37:45;;;;;;;6.63;2.22;;;;;;;;;;5032634;28;20497;-78
2023/06/27 03:40:11;;;;;;;3.47;1.85;;;;;;;;;;5032716;28;20025;-78
2023/06/27 03:42:36;;;;;;;2.85;2.10;;;;;;;;;;5033736;28;20022;-77
2023/06/27 03:45:03;;;;;;;4.60;2.58;;;;;;;;;;5052613;28;20028;-74
2023/06/27 03:47:29;;;;;;;5.28;2.80;;;;;;;;;;5034833;28;20024;-75
2023/06/27 03:49:54;;;;;;;4.90;2.15;;;;;;;;;;5015104;28;20033;-76
2023/06/27 03:52:20;;;;;;;6.28;2.40;;;;;;;;;;5032704;28;20539;-76
2023/06/27 03:54:45;;;;;;;6.82;2.33;;;;;;;;;;5030807;28;20061;-75
2023/06/27 03:57:11;;;;;;;3.78;2.10;;;;;;;;;;5032194;28;20546;-77
2023/06/27 03:59:36;;;;;;;3.25;1.63;;;;;;;;;;5030767;28;20524;-76
2023/06/27 04:02:02;;;;;;;11.90;2.67;;;;;;;;;;5052667;28;20112;-78
2023/06/27 04:04:27;;;;;;;4.88;1.88;;;;;;;;;;5035693;28;20025;-76
2023/06/27 04:06:53;;;;;;;9.30;2.08;;;;;;;;;;5032134;28;20053;-77
2023/06/27 04:09:18;;;;;;;5.63;2.63;;;;;;;;;;5032605;28;20025;-77
2023/06/27 04:11:44;;;;;;;6.22;2.28;;;;;;;;;;5011535;28;20445;-76
2023/06/27 04:14:10;;;;;;;2.85;1.83;;;;;;;;;;5036352;28;20391;-76
2023/06/27 04:16:35;;;;;;;11.52;2.20;;;;;;;;;;5052086;28;20025;-76
2023/06/27 04:19:01;;;;;;;5.05;2.30;;;;;;;;;;5033674;28;20035;-76
2023/06/27 04:21:26;;;;;;;8.00;3.00;;;;;;;;;;5034078;28;20029;-76
2023/06/27 04:23:54;;;;;;;5.25;2.40;;;;;;;;;;5042512;28;20094;-77
2023/06/27 04:26:20;;;;;;;5.72;2.13;;;;;;;;;;5013958;28;20044;-76
2023/06/27 04:28:48;;;;;;;3.63;1.85;;;;;;;;;;5013693;28;20083;-77
2023/06/27 04:31:14;;;;;;;4.78;1.98;;;;;;;;;;5032210;28;20059;-76
2023/06/27 04:33:40;;;;;;;3.85;2.08;;;;;;;;;;5013738;28;20413;-77
2023/06/27 04:36:06;;;;;;;3.83;1.98;;;;;;;;;;5013831;28;20204;-78
2023/06/27 04:38:38;;;;;;;5.75;1.95;;;;;;;;;;5036531;28;20510;-76
2023/06/27 04:41:07;;;;;;;4.22;2.15;;;;;;;;;;5040163;28;20060;-77
2023/06/27 04:43:33;;;;;;;3.33;1.90;;;;;;;;;;5019381;28;20063;-76
2023/06/27 04:45:59;;;;;;;4.55;2.05;;;;;;;;;;5051379;28;20037;-77
2023/06/27 04:48:26;;;;;;;2.30;2.10;;;;;;;;;;5050858;28;20019;-76
2023/06/27 04:50:51;;;;;;;2.08;1.88;;;;;;;;;;5051388;28;20033;-77
2023/06/27 04:53:20;;;;;;;3.35;2.08;;;;;;;;;;5051597;28;20025;-76
2023/06/27 04:55:47;;;;;;;8.77;2.08;;;;;;;;;;5026524;28;20070;-77
2023/06/27 04:58:12;;;;;;;3.10;2.17;;;;;;;;;;5025823;28;20071;-77
2023/06/27 05:00:38;;;;;;;4.53;2.53;;;;;;;;;;5033242;28;20029;-77
2023/06/27 05:03:03;;;;;;;6.15;2.33;;;;;;;;;;5032877;28;20059;-77
2023/06/27 05:05:33;;;;;;;3.72;1.85;;;;;;;;;;5050099;28;20044;-76
2023/06/27 05:08:02;;;;;;;5.85;2.28;;;;;;;;;;5050427;28;20048;-75
2023/06/27 05:10:28;;;;;;;4.82;2.60;;;;;;;;;;5032551;28;20032;-78
2023/06/27 05:12:54;;;;;;;6.25;2.47;;;;;;;;;;5011557;28;20030;-77
2023/06/27 05:15:20;;;;;;;3.47;1.70;;;;;;;;;;5010566;28;20551;-75
2023/06/27 05:17:53;;;;;;;5.32;2.90;;;;;;;;;;5015824;28;20033;-77
2023/06/27 05:20:20;;;;;;;5.10;2.28;;;;;;;;;;5030058;28;20044;-78
2023/06/27 05:22:46;;;;;;;5.97;2.70;;;;;;;;;;5018604;28;20025;-76
2023/06/27 05:25:12;;;;;;;4.18;2.00;;;;;;;;;;5040320;28;20357;-77
2023/06/27 05:27:38;;;;;;;5.65;2.22;;;;;;;;;;5020635;28;20116;-77
2023/06/27 05:30:04;;;;;;;6.32;2.90;;;;;;;;;;5007414;28;20451;-75
2023/06/27 05:32:30;;;;;;;6.25;2.45;;;;;;;;;;5029408;28;20017;-76
2023/06/27 05:34:55;;;;;;;4.40;2.45;;;;;;;;;;5021197;28;20036;-75
2023/06/27 05:37:21;;;;;;;7.72;2.40;;;;;;;;;;5019350;28;20034;-78
2023/06/27 05:39:46;;;;;;;5.15;2.40;;;;;;;;;;5011521;28;20127;-78
2023/06/27 05:42:12;;;;;;;7.95;2.10;;;;;;;;;;5026884;28;20084;-77
2023/06/27 05:44:40;;;;;;;4.90;2.30;;;;;;;;;;5027821;28;20749;-77
2023/06/27 05:47:06;;;;;;;4.13;2.53;;;;;;;;;;5021163;28;20086;-77
2023/06/27 05:49:31;;;;;;;5.28;2.33;;;;;;;;;;5021897;28;20081;-77
2023/06/27 05:51:57;;;;;;;5.60;2.58;;;;;;;;;;5005931;28;20022;-75
2023/06/27 05:54:23;;;;;;;12.05;3.03;;;;;;;;;;5018269;28;20386;-75
2023/06/27 05:56:48;;;;;;;9.38;4.00;;;;;;;;;;5021010;28;20460;-75
2023/06/27 05:59:14;;;;;;;9.93;3.00;;;;;;;;;;5020457;28;20049;-76
2023/06/27 06:01:40;;;;;;;8.77;2.90;;;;;;;;;;5038722;28;20090;-76
2023/06/27 06:04:43;;;;;;;8.00;3.15;;;;;;;;;;5026558;28;20033;-75
2023/06/27 06:07:36;;;;;;;8.20;2.88;;;;;;;;;;5021230;28;20037;-77
2023/06/27 06:10:55;;;;;;;;;;;;;;;;;;;;;
2023/06/27 06:13:53;;;;;;;;;;;;;;;;;;;;;
2023/06/27 06:16:27;;;;;;;3.97;2.80;;;;;;;;;;5033490;28;20180;-76
2023/06/27 06:22:55;;;;;;;3.00;2.33;;;;;;;;;;5005563;28;20045;-78
2023/06/27 06:25:20;;;;;;;6.00;2.58;;;;;;;;;;4995850;23;20062;-75
2023/06/27 06:27:46;;;;;;;6.90;2.53;;;;;;;;;;4930745;29;20035;-76
2023/06/27 06:30:12;;;;;;;4.47;2.53;;;;;;;;;;4932436;29;20039;-76
2023/06/27 06:32:39;;;;;;;4.15;2.40;;;;;;;;;;4931912;29;20055;-76
2023/06/27 06:35:05;;;;;;;5.75;2.67;;;;;;;;;;4929593;29;20131;-76
2023/06/27 06:37:31;;;;;;;6.85;2.20;;;;;;;;;;4911831;28;20361;-77
2023/06/27 06:39:56;;;;;;;5.05;2.33;;;;;;;;;;4912191;29;20091;-77
2023/06/27 06:42:22;;;;;;;7.10;2.75;;;;;;;;;;4948586;28;20091;-74
2023/06/27 06:44:52;;;;;;;4.88;2.42;;;;;;;;;;4931344;29;20037;-74
2023/06/27 06:47:18;;;;;;;6.50;2.88;;;;;;;;;;4922808;29;20055;-75
2023/06/27 06:49:43;;;;;;;5.25;2.20;;;;;;;;;;4938832;29;20027;-79
2023/06/27 06:52:12;;;;;;;6.60;2.40;;;;;;;;;;4914465;29;20438;-78
2023/06/27 06:54:38;;;;;;;5.32;2.35;;;;;;;;;;4933175;29;20066;-74
2023/06/27 06:57:08;;;;;;;13.43;2.75;;;;;;;;;;4930100;29;20096;-75
2023/06/27 06:59:36;;;;;;;4.15;1.70;;;;;;;;;;4929379;29;20028;-75
2023/06/27 07:02:02;;;;;;;8.80;2.70;;;;;;;;;;4929131;29;20043;-76
2023/06/27 07:04:29;;;;;;;5.43;2.13;;;;;;;;;;4943654;28;20113;-76
2023/06/27 07:07:10;;;;;;;4.65;1.85;;;;;;;;;;4924616;29;20111;-77
2023/06/27 07:09:35;;;;;;;4.10;2.10;;;;;;;;;;4928695;29;20043;-76
2023/06/27 07:12:01;;;;;;;3.10;2.20;;;;;;;;;;4923720;29;20058;-77
2023/06/27 07:14:26;;;;;;;5.90;2.95;;;;;;;;;;4922791;29;20038;-76
2023/06/27 07:16:56;;;;;;;6.78;2.05;;;;;;;;;;4935301;28;20031;-79
2023/06/27 07:19:22;;;;;;;7.43;2.97;;;;;;;;;;4923011;29;20038;-78
2023/06/27 07:22:33;;;;;;;5.78;1.90;;;;;;;;;;4909358;29;20035;-79
2023/06/27 07:24:58;;;;;;;5.10;2.73;;;;;;;;;;4920033;29;20389;-77
2023/06/27 07:27:24;;;;;;;8.20;3.53;;;;;;;;;;4923791;29;20138;-78
2023/06/27 07:29:49;;;;;;;3.60;2.58;;;;;;;;;;4936236;29;20028;-78
2023/06/27 07:32:15;;;;;;;5.60;2.58;;;;;;;;;;4929783;29;20584;-77
2023/06/27 07:34:40;;;;;;;7.70;2.67;;;;;;;;;;4919101;29;20437;-79
2023/06/27 07:37:30;;;;;;;7.50;2.55;;;;;;;;;;4910181;29;20138;-76
2023/06/27 07:39:56;;;;;;;7.85;2.20;;;;;;;;;;4906604;29;20072;-77
2023/06/27 07:42:21;;;;;;;4.18;2.38;;;;;;;;;;4926251;29;20118;-78
2023/06/27 07:44:47;;;;;;;3.35;2.10;;;;;;;;;;4925099;29;20035;-81
2023/06/27 07:47:13;;;;;;;5.40;2.10;;;;;;;;;;4913816;29;20055;-78
2023/06/27 07:49:38;;;;;;;3.40;2.15;;;;;;;;;;4916616;28;20050;-77
2023/06/27 07:52:32;;;;;;;3.75;2.25;;;;;;;;;;4913765;29;20043;-80
2023/06/27 07:54:57;;;;;;;4.00;2.03;;;;;;;;;;4919704;29;20643;-79
2023/06/27 07:57:23;;;;;;;6.65;1.77;;;;;;;;;;4911231;29;20051;-78
2023/06/27 07:59:48;;;;;;;6.03;1.75;;;;;;;;;;4907184;29;20062;-80
2023/06/27 08:02:17;;;;;;;4.13;1.77;;;;;;;;;;4934659;28;21378;-76
2023/06/27 08:04:43;;;;;;;4.95;1.67;;;;;;;;;;4921409;29;21202;-79
2023/06/27 08:07:21;;;;;;;5.03;1.08;;;;;;;;;;4934354;29;20202;-79
2023/06/27 08:09:46;;;;;;;1.52;0.95;;;;;;;;;;4958011;28;20050;-79
2023/06/27 08:12:12;;;;;;;5.13;1.42;;;;;;;;;;4947903;29;20173;-80
2023/06/27 08:14:40;;;;;;;3.90;0.95;;;;;;;;;;4944815;29;20508;-78
2023/06/27 08:17:06;;;;;;;4.80;1.45;;;;;;;;;;4924421;29;20484;-80
2023/06/27 08:19:33;;;;;;;11.00;4.68;;;;;;;;;;4926350;29;20028;-79
2023/06/27 08:24:48;;;;;;;6.55;1.17;;;;;;;;;;4952786;28;20066;-77
2023/06/27 08:27:16;;;;;;;3.83;1.42;;;;;;;;;;4965138;28;20118;-77
2023/06/27 08:29:41;;;;;;;2.75;1.30;;;;;;;;;;4951807;28;20049;-77
2023/06/27 08:32:07;;;;;;;2.88;1.20;;;;;;;;;;4973434;28;20022;-78
2023/06/27 08:34:38;;;;;;;2.30;1.08;;;;;;;;;;4974158;28;20043;-77
2023/06/27 08:37:04;;;;;;;;;;;;;;;;;;4960173;28;20039;-76
2023/06/27 08:39:29;;;;;;;3.10;1.15;;;;;;;;;;4944208;28;19917;-77
2023/06/27 08:41:56;;;;;;;6.88;1.20;;;;;;;;;;4949453;28;20032;-78
2023/06/27 08:44:25;;;;;;;2.33;1.33;;;;;;;;;;4947868;28;20039;-78
2023/06/27 08:46:52;;;;;;;2.47;1.30;;;;;;;;;;4933004;28;20034;-78
2023/06/27 08:49:23;;;;;;;2.35;0.82;;;;;;;;;;4910189;29;20044;-78
2023/06/27 08:52:17;;;;;;;0.98;0.90;;;;;;;;;;4950485;28;20035;-79
2023/06/27 08:54:55;;;;;;;3.40;1.00;;;;;;;;;;4946431;28;20062;-77
2023/06/27 08:57:25;;;;;;;1.80;1.20;;;;;;;;;;4924148;28;20031;-78
2023/06/27 09:00:04;;;;;;;1.30;1.15;;;;;;;;;;4948168;28;20028;-77
2023/06/27 09:02:31;;;;;;;5.57;1.30;;;;;;;;;;4942383;28;20035;-78
2023/06/27 09:04:58;;;;;;;4.38;1.48;;;;;;;;;;4941379;28;20112;-78
2023/06/27 09:10:10;;;;;;;3.25;0.93;;;;;;;;;;4939742;28;20042;-77
2023/06/27 09:12:38;;;;;;;5.18;1.10;;;;;;;;;;4919773;29;20126;-81
2023/06/27 09:15:04;;;;;;;2.90;1.30;;;;;;;;;;4924081;28;20039;-78
2023/06/27 09:17:30;;;;;;;12.27;1.20;;;;;;;;;;4929721;28;20053;-78
2023/06/27 09:19:56;;;;;;;2.97;1.30;;;;;;;;;;4933293;28;20511;-78
2023/06/27 09:22:43;;;;;;;3.53;1.52;;;;;;;;;;4934166;28;20156;-80
2023/06/27 09:25:09;;;;;;;3.53;1.08;;;;;;;;;;4911944;29;20146;-76
2023/06/27 09:27:35;;;;;;;2.65;1.30;;;;;;;;;;4911622;28;20043;-77
2023/06/27 09:30:06;;;;;;;3.33;1.10;;;;;;;;;;4938790;28;20369;-79
2023/06/27 09:32:31;;;;;;;1.83;1.17;;;;;;;;;;4918853;29;20039;-78
2023/06/27 09:35:01;;;;;;;3.83;1.38;;;;;;;;;;4931732;28;20097;-76
2023/06/27 09:37:34;;;;;;;5.50;1.58;;;;;;;;;;4912563;29;20150;-76
2023/06/27 09:40:25;;;;;;;2.08;1.50;;;;;;;;;;4931221;28;20102;-80
2023/06/27 09:43:02;;;;;;;3.03;1.63;;;;;;;;;;4920044;29;20399;-79
2023/06/27 09:45:29;;;;;;;2.35;1.30;;;;;;;;;;4912032;28;20535;-75
2023/06/27 09:47:58;;;;;;;3.25;1.30;;;;;;;;;;4928431;28;20035;-81
2023/06/27 09:50:29;;;;;;;13.35;1.50;;;;;;;;;;4917279;28;20109;-77
2023/06/27 09:52:59;;;;;;;6.55;2.15;;;;;;;;;;4914047;29;20042;-80
2023/06/27 09:55:26;;;;;;;3.03;1.33;;;;;;;;;;4923834;28;20506;-78
2023/06/27 09:57:53;;;;;;;2.17;1.58;;;;;;;;;;4920516;28;21601;-77
2023/06/27 10:00:20;;;;;;;7.30;1.55;;;;;;;;;;4916953;29;20035;-79
2023/06/27 10:02:48;;;;;;;3.33;2.03;;;;;;;;;;4939211;28;20034;-80
2023/06/27 10:05:16;;;;;;;7.70;2.13;;;;;;;;;;4933933;28;20039;-78
2023/06/27 10:07:47;;;;;;;5.25;1.88;;;;;;;;;;4907154;29;20156;-79
2023/06/27 10:10:14;;;;;;;3.00;2.33;;;;;;;;;;4915306;29;20758;-79
2023/06/27 10:12:41;;;;;;;1.98;1.60;;;;;;;;;;4940297;28;20051;-79
2023/06/27 10:15:08;;;;;;;1.98;1.23;;;;;;;;;;4931310;28;20074;-78
2023/06/27 10:17:40;;;;;;;3.78;1.45;;;;;;;;;;4917671;29;20488;-83
2023/06/27 10:20:08;;;;;;;2.35;1.52;;;;;;;;;;4917374;29;20404;-78
2023/06/27 10:22:43;;;;;;;4.35;1.10;;;;;;;;;;4930916;28;20401;-78
2023/06/27 10:25:10;;;;;;;2.90;1.40;;;;;;;;;;4915850;28;20102;-78
2023/06/27 10:27:42;;;;;;;2.85;1.33;;;;;;;;;;4934106;28;20047;-77
2023/06/27 10:30:17;;;;;;;2.42;1.30;;;;;;;;;;4939365;28;20035;-78
2023/06/27 10:32:45;;;;;;;2.53;1.33;;;;;;;;;;4923995;29;20023;-79
2023/06/27 10:35:24;;;;;;;4.47;1.15;;;;;;;;;;4940463;28;20035;-78
2023/06/27 10:38:25;;;;;;;3.30;1.30;;;;;;;;;;4932682;28;20138;-76
2023/06/27 10:41:18;;;;;;;8.00;1.63;;;;;;;;;;4926210;28;20043;-75
2023/06/27 10:43:59;;;;;;;6.15;2.22;;;;;;;;;;4917057;28;20169;-77
2023/06/27 10:46:30;;;;;;;7.78;1.50;;;;;;;;;;4914823;29;20038;-80
2023/06/27 10:49:06;;;;;;;3.23;1.30;;;;;;;;;;4936217;28;21488;-76
2023/06/27 10:51:59;;;;;;;2.85;1.30;;;;;;;;;;4934914;28;20651;-78
2023/06/27 10:54:41;;;;;;;2.35;1.25;;;;;;;;;;4919412;28;20039;-81
2023/06/27 10:57:15;;;;;;;2.25;1.27;;;;;;;;;;4913211;29;20742;-83
2023/06/27 10:59:45;;;;;;;2.22;1.10;;;;;;;;;;4937411;28;21121;-78
2023/06/27 11:02:17;;;;;;;3.83;0.90;;;;;;;;;;4941258;28;20456;-81
2023/06/27 11:04:46;;;;;;;3.03;0.98;;;;;;;;;;4919570;28;20042;-79
2023/06/27 11:07:28;;;;;;;2.92;1.10;;;;;;;;;;4905879;28;20193;-78
2023/06/27 11:09:55;;;;;;;;;;;;;;;;;;4919710;28;20588;-77
2023/06/27 11:12:21;;;;;;;3.83;1.15;;;;;;;;;;4927425;28;19985;-78
2023/06/27 11:14:53;;;;;;;2.60;1.17;;;;;;;;;;4934927;28;20035;-78
2023/06/27 11:17:20;;;;;;;1.75;0.90;;;;;;;;;;4910945;28;20039;-80
2023/06/27 11:19:45;;;;;;;2.83;1.30;;;;;;;;;;4919925;28;20105;-79
2023/06/27 11:22:26;;;;;;;1.98;1.20;;;;;;;;;;4920715;28;20042;-80
2023/06/27 11:24:52;;;;;;;1.98;0.85;;;;;;;;;;4939026;28;20057;-77
2023/06/27 11:27:19;;;;;;;1.83;1.00;;;;;;;;;;4928839;28;20035;-77
2023/06/27 11:29:44;;;;;;;3.05;1.10;;;;;;;;;;4935292;28;20563;-76
2023/06/27 11:32:12;;;;;;;2.08;1.20;;;;;;;;;;4936805;28;20019;-79
2023/06/27 11:34:42;;;;;;;3.63;1.00;;;;;;;;;;4919533;28;20033;-78
2023/06/27 11:37:14;;;;;;;4.07;0.65;;;;;;;;;;4916888;28;20413;-78
2023/06/27 11:39:39;;;;;;;2.03;0.82;;;;;;;;;;4928618;29;20038;-78
2023/06/27 11:42:05;;;;;;;1.20;0.73;;;;;;;;;;4924945;29;20042;-79
2023/06/27 11:44:32;;;;;;;3.33;1.00;;;;;;;;;;4917629;28;20122;-78
2023/06/27 11:46:57;;;;;;;3.35;1.27;;;;;;;;;;4912033;28;20039;-77
2023/06/27 11:49:24;;;;;;;4.05;0.90;;;;;;;;;;4922316;29;20038;-78
2023/06/27 11:52:09;;;;;;;2.55;0.90;;;;;;;;;;4940263;28;20086;-77
2023/06/27 11:54:47;;;;;;;2.30;1.00;;;;;;;;;;4937386;28;20115;-77
2023/06/27 11:57:13;;;;;;;4.07;0.93;;;;;;;;;;4917740;28;20027;-79
2023/06/27 11:59:39;;;;;;;1.75;0.88;;;;;;;;;;4936337;28;20112;-78
2023/06/27 12:02:05;;;;;;;2.53;1.10;;;;;;;;;;4933396;28;21222;-77
2023/06/27 12:04:33;;;;;;;3.17;0.80;;;;;;;;;;4935553;28;20046;-79
2023/06/27 12:07:27;;;;;;;4.93;0.80;;;;;;;;;;4931270;28;20031;-79
2023/06/27 12:10:24;;;;;;;3.63;1.27;;;;;;;;;;4938482;28;20027;-78
2023/06/27 12:12:51;;;;;;;3.38;0.60;;;;;;;;;;4937859;28;20027;-80
2023/06/27 12:15:17;;;;;;;2.05;0.70;;;;;;;;;;4937168;28;20035;-78
2023/06/27 12:18:02;;;;;;;3.30;0.80;;;;;;;;;;4936633;28;20039;-80
2023/06/27 12:20:44;;;;;;;3.00;0.90;;;;;;;;;;4941839;28;20043;-78
2023/06/27 12:23:11;;;;;;;1.58;0.55;;;;;;;;;;4939241;28;20181;-80
2023/06/27 12:25:41;;;;;;;6.53;2.33;;;;;;;;;;4928232;29;20515;-78
2023/06/27 12:28:07;;;;;;;3.70;0.80;;;;;;;;;;4925871;28;20031;-80
2023/06/27 12:30:33;;;;;;;2.08;0.90;;;;;;;;;;4948872;28;20031;-80
2023/06/27 12:33:00;;;;;;;5.95;0.90;;;;;;;;;;4933103;28;20100;-78
2023/06/27 12:35:29;;;;;;;3.63;1.48;;;;;;;;;;4931319;29;20135;-77
2023/06/27 12:37:55;;;;;;;1.42;0.63;;;;;;;;;;4923766;28;20035;-79
2023/06/27 12:40:25;;;;;;;3.40;0.60;;;;;;;;;;4943000;28;20046;-80
2023/06/27 12:42:57;;;;;;;1.03;0.40;;;;;;;;;;4944913;28;20035;-78
2023/06/27 12:45:25;;;;;;;1.27;1.13;;;;;;;;;;4945415;28;20118;-80
2023/06/27 12:47:50;;;;;;;1.75;0.70;;;;;;;;;;4955134;28;20094;-80
2023/06/27 12:50:17;;;;;;;1.75;0.88;;;;;;;;;;4967035;28;20039;-79
2023/06/27 12:52:48;;;;;;;1.60;0.90;;;;;;;;;;4960234;28;20058;-78
2023/06/27 12:55:30;;;;;;;0.88;0.50;;;;;;;;;;4957685;28;20985;-77
2023/06/27 12:57:57;;;;;;;0.80;0.70;;;;;;;;;;4920419;28;20042;-78
2023/06/27 13:00:23;;;;;;;2.60;0.68;;;;;;;;;;4919739;29;20035;-78
2023/06/27 13:02:50;;;;;;;1.48;0.80;;;;;;;;;;4919880;28;20038;-78
2023/06/27 13:05:16;;;;;;;3.42;0.60;;;;;;;;;;4933050;28;20070;-79
2023/06/27 13:07:41;;;;;;;1.20;0.85;;;;;;;;;;4936572;28;20504;-79
2023/06/27 13:10:09;;;;;;;1.58;0.70;;;;;;;;;;4922989;28;20392;-79
2023/06/27 13:12:35;;;;;;;3.50;0.80;;;;;;;;;;4950009;28;20042;-78
2023/06/27 13:15:02;;;;;;;5.60;0.65;;;;;;;;;;4952107;28;20050;-77
2023/06/27 13:17:28;;;;;;;3.03;0.73;;;;;;;;;;4919976;28;20027;-78
2023/06/27 13:19:53;;;;;;;1.50;0.45;;;;;;;;;;4917711;29;20434;-80
2023/06/27 13:22:41;;;;;;;0.88;0.75;;;;;;;;;;4917756;29;20027;-79
2023/06/27 13:25:06;;;;;;;2.85;0.80;;;;;;;;;;4937077;28;20039;-80
2023/06/27 13:27:33;;;;;;;1.00;0.65;;;;;;;;;;4914400;29;20165;-79
2023/06/27 13:29:59;;;;;;;0.88;0.55;;;;;;;;;;4908262;28;20027;-79
2023/06/27 13:32:28;;;;;;;3.10;0.80;;;;;;;;;;4912293;28;20568;-80
2023/06/27 13:34:53;;;;;;;2.58;0.75;;;;;;;;;;4934014;28;20547;-78
2023/06/27 13:37:19;;;;;;;1.70;1.25;;;;;;;;;;4911172;28;20043;-78
2023/06/27 13:39:44;;;;;;;1.30;0.60;;;;;;;;;;4917572;29;20406;-78
2023/06/27 13:42:10;;;;;;;0.65;0.52;;;;;;;;;;4935168;28;20060;-78
2023/06/27 13:44:35;;;;;;;2.45;0.77;;;;;;;;;;4934683;28;20544;-78
2023/06/27 13:47:03;;;;;;;2.25;0.60;;;;;;;;;;4937616;28;20518;-78
2023/06/27 13:49:29;;;;;;;3.83;1.65;;;;;;;;;;4930275;29;20031;-79
2023/06/27 13:51:55;;;;;;;1.25;0.68;;;;;;;;;;4940640;28;20538;-82
2023/06/27 13:54:21;;;;;;;2.03;0.90;;;;;;;;;;4948750;28;20030;-79
2023/06/27 13:56:47;;;;;;;2.72;0.57;;;;;;;;;;4951226;28;20042;-79
2023/06/27 13:59:13;;;;;;;2.08;0.95;;;;;;;;;;4923981;28;20039;-79
2023/06/27 14:01:38;;;;;;;1.17;0.70;;;;;;;;;;4957665;28;20070;-80
2023/06/27 14:04:04;;;;;;;4.15;0.68;;;;;;;;;;4931636;29;20039;-80
2023/06/27 14:06:31;;;;;;;0.88;0.77;;;;;;;;;;4949782;28;20042;-79
2023/06/27 14:08:59;;;;;;;1.15;0.50;;;;;;;;;;4944940;28;20045;-79
2023/06/27 14:11:26;;;;;;;1.30;0.80;;;;;;;;;;4934163;29;20038;-79
2023/06/27 14:13:53;;;;;;;2.20;0.63;;;;;;;;;;4949918;28;20122;-79
2023/06/27 14:16:20;;;;;;;1.75;0.80;;;;;;;;;;4949160;28;20034;-79
2023/06/27 14:18:46;;;;;;;1.35;0.85;;;;;;;;;;4927602;28;21672;-81
2023/06/27 14:21:12;;;;;;;4.15;0.90;;;;;;;;;;4934947;28;20035;-79
2023/06/27 14:23:39;;;;;;;3.55;1.35;;;;;;;;;;4948125;28;20039;-80
2023/06/27 14:26:08;;;;;;;2.28;0.73;;;;;;;;;;4944656;28;20118;-80
2023/06/27 14:28:35;;;;;;;1.45;0.82;;;;;;;;;;4950065;28;20098;-81
2023/06/27 14:31:01;;;;;;;1.70;1.00;;;;;;;;;;4938434;28;20055;-79
2023/06/27 14:33:27;;;;;;;1.80;0.80;;;;;;;;;;4937796;29;20046;-80
2023/06/27 14:35:54;;;;;;;0.88;0.60;;;;;;;;;;4924773;28;20035;-79
2023/06/27 14:38:22;;;;;;;2.85;1.08;;;;;;;;;;4942258;28;20038;-81
2023/06/27 14:40:50;;;;;;;2.03;0.80;;;;;;;;;;4967697;28;20035;-79
2023/06/27 14:43:16;;;;;;;2.75;1.30;;;;;;;;;;4966818;28;20089;-79
2023/06/27 14:45:42;;;;;;;9.98;0.95;;;;;;;;;;4963830;28;20035;-79
2023/06/27 14:48:10;;;;;;;1.70;0.75;;;;;;;;;;4942734;29;20027;-80
2023/06/27 14:50:36;;;;;;;5.15;1.95;;;;;;;;;;4942894;28;20042;-81
2023/06/27 14:53:03;;;;;;;1.98;0.57;;;;;;;;;;4956694;29;20028;-82
2023/06/27 14:55:29;;;;;;;3.42;1.05;;;;;;;;;;4954595;28;20043;-80
2023/06/27 14:57:57;;;;;;;3.08;1.08;;;;;;;;;;4949998;29;20511;-79
2023/06/27 15:00:23;;;;;;;2.92;0.93;;;;;;;;;;4951475;28;20678;-79
2023/06/27 15:02:49;;;;;;;4.40;1.30;;;;;;;;;;4940497;29;20102;-79
2023/06/27 15:05:15;;;;;;;1.90;1.08;;;;;;;;;;4911290;29;20115;-79